Time;durP1;ratioP1;P1;durP2;ratioP2;P2;SDS_P1;SDS_P2;PMS_P1;PMS_P2;Temp;Humidity;BMP_temperature;BMP_pressure;BME280_temperature;BME280_humidity;BME280_pressure;Samples;Min_cycle;Max_cycle;Signal;HPM_P1;HPM_P2
2023/06/14 00:01:22;;;;;;;13.18;7.70;;;;;;;;;;5064457;28;20888;-63
2023/06/14 00:03:49;;;;;;;9.35;7.20;;;;;;;;;;5065078;28;20419;-63
2023/06/14 00:06:16;;;;;;;10.43;7.43;;;;;;;;;;5068611;28;20924;-63
2023/06/14 00:08:43;;;;;;;9.60;7.20;;;;;;;;;;5064566;28;20450;-63
2023/06/14 00:11:11;;;;;;;10.23;7.10;;;;;;;;;;5062038;28;20421;-63
2023/06/14 00:13:38;;;;;;;9.65;7.63;;;;;;;;;;5062965;28;20415;-63
2023/06/14 00:16:05;;;;;;;9.75;7.38;;;;;;;;;;5068836;28;20472;-63
2023/06/14 00:18:32;;;;;;;9.55;7.15;;;;;;;;;;5063216;28;20478;-63
2023/06/14 00:20:59;;;;;;;8.98;7.20;;;;;;;;;;5063347;28;20413;-63
2023/06/14 00:23:26;;;;;;;11.63;7.27;;;;;;;;;;5064836;28;20971;-63
2023/06/14 00:25:53;;;;;;;8.65;6.93;;;;;;;;;;5067070;28;20425;-63
2023/06/14 00:28:22;;;;;;;9.90;7.60;;;;;;;;;;5062205;28;20894;-63
2023/06/14 00:30:49;;;;;;;9.07;7.00;;;;;;;;;;5064281;28;20419;-63
2023/06/14 00:33:16;;;;;;;8.40;6.97;;;;;;;;;;5066104;28;20447;-63
2023/06/14 00:35:43;;;;;;;9.68;6.95;;;;;;;;;;5071182;28;20412;-63
2023/06/14 00:38:10;;;;;;;9.35;6.57;;;;;;;;;;5064228;28;20455;-63
2023/06/14 00:40:37;;;;;;;8.70;6.70;;;;;;;;;;5061934;28;20418;-63
2023/06/14 00:43:04;;;;;;;8.10;6.63;;;;;;;;;;5065807;28;20947;-63
2023/06/14 00:45:35;;;;;;;13.27;7.00;;;;;;;;;;5072121;28;20419;-63
2023/06/14 00:48:03;;;;;;;9.73;6.72;;;;;;;;;;5062576;28;20413;-63
2023/06/14 00:50:32;;;;;;;7.72;6.68;;;;;;;;;;5066027;28;20481;-63
2023/06/14 00:52:59;;;;;;;10.90;7.30;;;;;;;;;;5062644;28;20511;-63
2023/06/14 00:55:26;;;;;;;8.98;6.35;;;;;;;;;;5061086;28;20911;-63
2023/06/14 00:57:53;;;;;;;10.52;6.60;;;;;;;;;;5065033;28;20419;-63
2023/06/14 01:00:20;;;;;;;8.52;6.55;;;;;;;;;;5065841;28;20417;-63
2023/06/14 01:02:49;;;;;;;9.02;6.82;;;;;;;;;;5061902;28;20952;-63
2023/06/14 01:05:17;;;;;;;8.33;6.47;;;;;;;;;;5063560;28;20452;-63
2023/06/14 01:07:48;;;;;;;8.13;6.30;;;;;;;;;;5067606;28;20562;-63
2023/06/14 01:10:27;;;;;;;7.83;6.20;;;;;;;;;;5062833;28;20993;-63
2023/06/14 01:12:59;;;;;;;8.43;6.45;;;;;;;;;;5067060;28;20407;-63
2023/06/14 01:15:28;;;;;;;11.13;6.72;;;;;;;;;;5070698;28;20420;-63
2023/06/14 01:18:02;;;;;;;9.40;6.53;;;;;;;;;;5062596;28;20418;-63
2023/06/14 01:20:30;;;;;;;8.68;6.60;;;;;;;;;;5068734;28;20481;-63
2023/06/14 01:22:59;;;;;;;9.18;6.25;;;;;;;;;;5063183;28;20474;-63
2023/06/14 01:25:26;;;;;;;9.05;6.43;;;;;;;;;;5061629;28;20468;-63
2023/06/14 01:27:54;;;;;;;7.78;6.53;;;;;;;;;;5065331;28;20519;-63
2023/06/14 01:30:22;;;;;;;9.18;6.68;;;;;;;;;;5065801;28;20424;-63
2023/06/14 01:32:50;;;;;;;8.40;6.35;;;;;;;;;;5063533;28;20415;-63
2023/06/14 01:35:17;;;;;;;8.88;6.25;;;;;;;;;;5063271;28;20411;-63
2023/06/14 01:37:44;;;;;;;9.57;6.47;;;;;;;;;;5064129;28;20419;-63
2023/06/14 01:40:14;;;;;;;8.90;6.32;;;;;;;;;;5064160;28;20427;-63
2023/06/14 01:42:41;;;;;;;9.07;5.82;;;;;;;;;;5063531;28;20473;-63
2023/06/14 01:45:09;;;;;;;8.70;5.85;;;;;;;;;;5065058;28;20467;-63
2023/06/14 01:47:36;;;;;;;8.73;6.40;;;;;;;;;;5061319;28;20470;-63
2023/06/14 01:50:03;;;;;;;9.18;6.43;;;;;;;;;;5061870;28;20417;-63
2023/06/14 01:52:30;;;;;;;8.15;5.90;;;;;;;;;;5061767;28;20425;-62
2023/06/14 01:54:57;;;;;;;8.70;6.05;;;;;;;;;;5064150;28;20475;-63
2023/06/14 01:57:27;;;;;;;6.75;6.00;;;;;;;;;;5064964;28;20423;-62
2023/06/14 01:59:54;;;;;;;9.23;6.47;;;;;;;;;;5063243;28;20492;-63
2023/06/14 02:02:21;;;;;;;7.60;6.32;;;;;;;;;;5061700;28;20465;-63
2023/06/14 02:04:48;;;;;;;9.37;6.10;;;;;;;;;;5060903;28;20828;-63
2023/06/14 02:07:15;;;;;;;7.90;6.43;;;;;;;;;;5060537;28;20430;-63
2023/06/14 02:09:42;;;;;;;9.13;6.40;;;;;;;;;;5062173;28;20822;-63
2023/06/14 02:12:10;;;;;;;9.20;5.88;;;;;;;;;;5059346;28;20978;-63
2023/06/14 02:14:39;;;;;;;8.20;6.22;;;;;;;;;;5063411;28;20883;-63
2023/06/14 02:17:06;;;;;;;8.07;6.20;;;;;;;;;;5063545;28;20458;-63
2023/06/14 02:19:34;;;;;;;7.50;5.90;;;;;;;;;;5062556;28;20418;-63
2023/06/14 02:22:01;;;;;;;7.60;5.97;;;;;;;;;;5062469;28;21005;-63
2023/06/14 02:24:28;;;;;;;10.07;6.82;;;;;;;;;;5060652;28;20417;-63
2023/06/14 02:26:55;;;;;;;8.50;6.40;;;;;;;;;;5064868;28;20425;-63
2023/06/14 02:29:22;;;;;;;13.05;8.35;;;;;;;;;;5062903;28;20454;-63
2023/06/14 02:31:50;;;;;;;11.43;6.15;;;;;;;;;;5060651;28;20908;-63
2023/06/14 02:34:17;;;;;;;8.05;5.85;;;;;;;;;;5060271;28;20465;-63
2023/06/14 02:36:44;;;;;;;8.05;5.80;;;;;;;;;;5066851;28;20784;-63
2023/06/14 02:39:11;;;;;;;10.23;6.10;;;;;;;;;;5063799;28;20419;-63
2023/06/14 02:41:38;;;;;;;8.77;6.25;;;;;;;;;;5062438;28;20407;-63
2023/06/14 02:44:05;;;;;;;8.90;6.57;;;;;;;;;;5063757;28;20424;-63
2023/06/14 02:46:32;;;;;;;9.45;6.03;;;;;;;;;;5064483;28;20466;-63
2023/06/14 02:49:01;;;;;;;10.55;6.07;;;;;;;;;;5060501;28;20511;-63
2023/06/14 02:51:28;;;;;;;11.15;6.07;;;;;;;;;;5067321;28;20477;-63
2023/06/14 02:53:55;;;;;;;8.07;5.80;;;;;;;;;;5059177;28;20428;-62
2023/06/14 02:56:22;;;;;;;8.13;6.00;;;;;;;;;;5064470;28;20428;-62
2023/06/14 02:58:50;;;;;;;9.47;6.10;;;;;;;;;;5060980;28;20498;-62
2023/06/14 03:01:17;;;;;;;8.70;6.35;;;;;;;;;;5059070;28;20816;-62
2023/06/14 03:03:44;;;;;;;10.15;5.80;;;;;;;;;;5064100;28;20853;-62
2023/06/14 03:06:13;;;;;;;8.25;5.90;;;;;;;;;;5061029;28;20453;-62
2023/06/14 03:08:41;;;;;;;7.75;5.80;;;;;;;;;;5062799;28;20456;-62
2023/06/14 03:11:08;;;;;;;7.85;5.45;;;;;;;;;;5059564;28;20425;-62
2023/06/14 03:13:35;;;;;;;9.23;5.93;;;;;;;;;;5067151;28;20427;-62
2023/06/14 03:16:03;;;;;;;7.40;5.47;;;;;;;;;;5065884;28;20415;-62
2023/06/14 03:18:35;;;;;;;7.93;5.32;;;;;;;;;;5060378;28;20414;-62
2023/06/14 03:21:02;;;;;;;7.88;5.50;;;;;;;;;;5062243;28;20430;-62
2023/06/14 03:23:30;;;;;;;8.07;5.70;;;;;;;;;;5060670;28;21033;-62
2023/06/14 03:25:57;;;;;;;8.75;5.45;;;;;;;;;;5062271;28;20423;-62
2023/06/14 03:28:25;;;;;;;7.10;5.30;;;;;;;;;;5061497;28;20407;-62
2023/06/14 03:30:52;;;;;;;8.75;5.50;;;;;;;;;;5064970;28;20475;-61
2023/06/14 03:33:19;;;;;;;6.53;5.27;;;;;;;;;;5062404;28;20490;-62
2023/06/14 03:35:46;;;;;;;9.15;5.60;;;;;;;;;;5061371;28;20408;-62
2023/06/14 03:38:13;;;;;;;6.60;5.10;;;;;;;;;;5066539;28;20473;-62
2023/06/14 03:40:42;;;;;;;7.53;5.50;;;;;;;;;;5059795;28;20421;-62
2023/06/14 03:43:09;;;;;;;6.03;5.07;;;;;;;;;;5063514;28;20478;-62
2023/06/14 03:45:36;;;;;;;10.07;5.28;;;;;;;;;;5059693;28;20412;-62
2023/06/14 03:48:06;;;;;;;6.57;5.30;;;;;;;;;;5062459;28;20903;-61
2023/06/14 03:50:33;;;;;;;5.53;4.95;;;;;;;;;;5059292;28;20458;-62
2023/06/14 03:53:01;;;;;;;7.38;5.07;;;;;;;;;;5060273;28;20454;-60
2023/06/14 03:55:31;;;;;;;8.77;5.20;;;;;;;;;;5061986;28;20459;-61
2023/06/14 03:57:59;;;;;;;8.18;5.13;;;;;;;;;;5060264;28;20991;-61
2023/06/14 04:00:26;;;;;;;7.70;5.20;;;;;;;;;;5065149;28;20423;-61
2023/06/14 04:02:53;;;;;;;6.75;4.97;;;;;;;;;;5059530;28;20435;-62
2023/06/14 04:05:20;;;;;;;6.35;5.38;;;;;;;;;;5059187;28;20424;-61
2023/06/14 04:07:48;;;;;;;6.67;4.77;;;;;;;;;;5050202;28;20405;-62
2023/06/14 04:10:15;;;;;;;6.50;4.73;;;;;;;;;;5055565;28;20434;-61
2023/06/14 04:12:43;;;;;;;7.70;5.20;;;;;;;;;;5060422;28;20476;-61
2023/06/14 04:15:11;;;;;;;5.93;4.80;;;;;;;;;;5062732;28;20898;-62
2023/06/14 04:17:38;;;;;;;10.30;4.90;;;;;;;;;;5058962;28;20454;-62
2023/06/14 04:20:07;;;;;;;7.60;4.25;;;;;;;;;;5062352;28;20803;-62
2023/06/14 04:22:36;;;;;;;6.90;4.50;;;;;;;;;;5059230;28;20417;-62
2023/06/14 04:25:03;;;;;;;7.85;4.65;;;;;;;;;;5059245;28;20834;-62
2023/06/14 04:27:35;;;;;;;8.15;4.40;;;;;;;;;;5059489;28;20791;-62
2023/06/14 04:30:02;;;;;;;6.88;4.53;;;;;;;;;;5061934;28;20423;-62
2023/06/14 04:32:33;;;;;;;7.28;4.43;;;;;;;;;;5063173;28;20429;-62
2023/06/14 04:35:01;;;;;;;6.73;4.37;;;;;;;;;;5065169;28;20498;-62
2023/06/14 04:37:29;;;;;;;8.37;4.70;;;;;;;;;;5064813;28;20488;-62
2023/06/14 04:39:56;;;;;;;6.53;4.32;;;;;;;;;;5063141;28;20865;-60
2023/06/14 04:42:25;;;;;;;5.65;4.05;;;;;;;;;;5064294;28;20510;-61
2023/06/14 04:44:54;;;;;;;7.32;4.35;;;;;;;;;;5062917;28;20823;-60
2023/06/14 04:47:21;;;;;;;8.65;3.85;;;;;;;;;;5063605;28;20506;-61
2023/06/14 04:49:52;;;;;;;6.65;4.10;;;;;;;;;;5065237;28;20427;-61
2023/06/14 04:52:20;;;;;;;6.00;4.50;;;;;;;;;;5063716;28;20434;-61
2023/06/14 04:54:48;;;;;;;8.75;4.20;;;;;;;;;;5067992;28;20426;-61
2023/06/14 04:57:17;;;;;;;7.22;4.20;;;;;;;;;;5073222;28;20427;-61
2023/06/14 04:59:44;;;;;;;7.32;3.85;;;;;;;;;;5070029;28;20521;-61
2023/06/14 05:02:11;;;;;;;7.72;4.05;;;;;;;;;;5069198;28;20415;-60
2023/06/14 05:04:39;;;;;;;6.15;4.10;;;;;;;;;;5070560;28;20425;-59
2023/06/14 05:07:08;;;;;;;6.03;4.10;;;;;;;;;;5064234;28;20458;-60
2023/06/14 05:09:35;;;;;;;7.10;3.80;;;;;;;;;;5062318;28;20457;-61
2023/06/14 05:12:03;;;;;;;8.52;4.10;;;;;;;;;;5064330;28;20469;-61
2023/06/14 05:14:30;;;;;;;5.47;3.90;;;;;;;;;;5066400;28;20418;-58
2023/06/14 05:16:57;;;;;;;5.03;3.95;;;;;;;;;;5064333;28;20417;-56
2023/06/14 05:19:24;;;;;;;7.20;4.20;;;;;;;;;;5065652;28;20421;-58
2023/06/14 05:21:51;;;;;;;6.22;3.90;;;;;;;;;;5065378;28;20413;-64
2023/06/14 05:24:19;;;;;;;9.00;4.28;;;;;;;;;;5067897;28;20831;-64
2023/06/14 05:26:46;;;;;;;6.03;4.00;;;;;;;;;;5063825;28;20463;-65
2023/06/14 05:29:13;;;;;;;6.30;3.97;;;;;;;;;;5061371;28;20416;-63
2023/06/14 05:31:40;;;;;;;6.87;4.23;;;;;;;;;;5063337;28;20412;-63
2023/06/14 05:34:07;;;;;;;10.05;4.43;;;;;;;;;;5067067;28;20415;-64
2023/06/14 05:36:36;;;;;;;6.57;3.85;;;;;;;;;;5057086;28;20467;-63
2023/06/14 05:39:04;;;;;;;4.93;3.83;;;;;;;;;;5063213;28;20416;-62
2023/06/14 05:41:32;;;;;;;8.05;4.25;;;;;;;;;;5067002;28;20441;-63
2023/06/14 05:44:00;;;;;;;8.73;4.50;;;;;;;;;;5068848;28;20412;-62
2023/06/14 05:46:28;;;;;;;8.50;3.95;;;;;;;;;;5063202;28;20925;-59
2023/06/14 05:48:55;;;;;;;7.57;4.03;;;;;;;;;;5062950;28;20422;-63
2023/06/14 05:51:24;;;;;;;7.03;3.97;;;;;;;;;;5063182;28;20411;-63
2023/06/14 05:53:51;;;;;;;6.78;4.10;;;;;;;;;;5065084;28;20423;-62
2023/06/14 05:56:19;;;;;;;6.72;4.05;;;;;;;;;;5064410;28;20415;-62
2023/06/14 05:58:48;;;;;;;7.75;3.75;;;;;;;;;;5060790;28;20456;-62
2023/06/14 06:01:15;;;;;;;7.50;3.78;;;;;;;;;;5065771;28;20503;-60
2023/06/14 06:03:45;;;;;;;7.17;3.77;;;;;;;;;;5067555;28;20418;-62
2023/06/14 06:06:12;;;;;;;5.55;3.63;;;;;;;;;;5066913;28;20431;-61
2023/06/14 06:08:40;;;;;;;7.03;4.10;;;;;;;;;;5062947;28;20437;-62
2023/06/14 06:11:07;;;;;;;8.18;3.92;;;;;;;;;;5061050;28;20960;-60
2023/06/14 06:13:34;;;;;;;5.28;3.80;;;;;;;;;;5069653;28;20427;-62
2023/06/14 06:16:03;;;;;;;4.60;3.30;;;;;;;;;;5062076;28;20417;-63
2023/06/14 06:18:30;;;;;;;5.63;3.10;;;;;;;;;;5060975;28;20474;-62
2023/06/14 06:20:57;;;;;;;4.47;3.30;;;;;;;;;;5062872;28;20499;-62
2023/06/14 06:23:24;;;;;;;7.43;3.33;;;;;;;;;;5064643;28;20988;-62
2023/06/14 06:25:51;;;;;;;9.63;3.55;;;;;;;;;;5069076;28;20427;-61
2023/06/14 06:28:18;;;;;;;6.18;3.47;;;;;;;;;;5057188;28;20413;-61
2023/06/14 06:30:45;;;;;;;3.70;2.65;;;;;;;;;;5064454;28;20414;-61
2023/06/14 06:33:14;;;;;;;6.35;2.95;;;;;;;;;;5065939;28;20430;-61
2023/06/14 06:35:41;;;;;;;5.28;2.80;;;;;;;;;;5063612;28;20419;-61
2023/06/14 06:38:09;;;;;;;3.70;2.60;;;;;;;;;;5059363;28;20416;-61
2023/06/14 06:40:36;;;;;;;6.13;2.70;;;;;;;;;;5061499;28;20426;-63
2023/06/14 06:43:03;;;;;;;3.58;2.65;;;;;;;;;;5066613;28;20417;-63
2023/06/14 06:45:30;;;;;;;3.57;2.57;;;;;;;;;;5064494;28;20823;-62
2023/06/14 06:47:57;;;;;;;5.72;2.78;;;;;;;;;;5062709;28;20409;-61
2023/06/14 06:50:25;;;;;;;3.95;2.33;;;;;;;;;;5062539;28;20411;-64
2023/06/14 06:52:53;;;;;;;5.18;2.70;;;;;;;;;;5061558;28;20903;-59
2023/06/14 06:55:20;;;;;;;7.10;2.80;;;;;;;;;;5064147;28;20851;-60
2023/06/14 06:57:47;;;;;;;7.80;2.95;;;;;;;;;;5064602;28;20420;-61
2023/06/14 07:00:14;;;;;;;5.45;2.80;;;;;;;;;;5063174;28;21191;-62
2023/06/14 07:02:41;;;;;;;5.15;2.83;;;;;;;;;;5068440;28;20437;-61
2023/06/14 07:05:08;;;;;;;5.28;2.65;;;;;;;;;;5069187;28;20448;-62
2023/06/14 07:07:37;;;;;;;4.32;2.50;;;;;;;;;;5068001;28;20411;-61
2023/06/14 07:10:04;;;;;;;4.65;2.70;;;;;;;;;;5061024;28;20417;-60
2023/06/14 07:12:33;;;;;;;6.15;2.70;;;;;;;;;;5065001;28;20439;-61
2023/06/14 07:15:00;;;;;;;4.65;2.70;;;;;;;;;;5064706;28;20416;-60
2023/06/14 07:17:27;;;;;;;3.30;2.40;;;;;;;;;;5061729;28;20448;-62
2023/06/14 07:19:54;;;;;;;3.88;2.60;;;;;;;;;;5061359;28;20415;-61
2023/06/14 07:22:21;;;;;;;4.47;2.80;;;;;;;;;;5060756;28;20433;-62
2023/06/14 07:24:50;;;;;;;5.85;2.60;;;;;;;;;;5060276;28;20425;-61
2023/06/14 07:27:17;;;;;;;6.30;2.47;;;;;;;;;;5063523;28;20412;-58
2023/06/14 07:29:44;;;;;;;6.72;2.60;;;;;;;;;;5060963;28;20784;-60
2023/06/14 07:32:11;;;;;;;4.25;2.40;;;;;;;;;;5060982;28;20899;-61
2023/06/14 07:34:38;;;;;;;3.50;2.47;;;;;;;;;;5064110;28;20469;-62
2023/06/14 07:37:05;;;;;;;4.70;2.53;;;;;;;;;;5058341;28;20421;-63
2023/06/14 07:39:32;;;;;;;7.40;2.60;;;;;;;;;;5060179;28;20418;-64
2023/06/14 07:42:00;;;;;;;3.15;2.15;;;;;;;;;;5063593;28;20469;-61
2023/06/14 07:44:29;;;;;;;5.30;2.47;;;;;;;;;;5066499;28;20421;-62
2023/06/14 07:46:57;;;;;;;4.35;2.50;;;;;;;;;;5064315;28;20416;-63
2023/06/14 07:49:24;;;;;;;5.38;2.50;;;;;;;;;;5050237;28;21081;-61
2023/06/14 07:51:51;;;;;;;4.78;2.38;;;;;;;;;;5050439;28;20421;-64
2023/06/14 07:54:18;;;;;;;4.10;2.30;;;;;;;;;;5061643;28;20483;-55
2023/06/14 07:56:45;;;;;;;3.42;2.40;;;;;;;;;;5063661;28;20892;-61
2023/06/14 07:59:13;;;;;;;4.80;2.53;;;;;;;;;;5064516;28;20416;-55
2023/06/14 08:01:46;;;;;;;4.28;2.30;;;;;;;;;;5066166;28;20908;-60
2023/06/14 08:04:13;;;;;;;3.67;2.30;;;;;;;;;;5061535;28;20953;-63
2023/06/14 08:06:43;;;;;;;3.42;2.20;;;;;;;;;;5068419;28;20415;-63
2023/06/14 08:09:11;;;;;;;3.65;2.38;;;;;;;;;;5068484;28;20832;-62
2023/06/14 08:11:38;;;;;;;5.60;2.20;;;;;;;;;;5066051;28;20415;-62
2023/06/14 08:14:05;;;;;;;4.38;2.30;;;;;;;;;;5068637;28;20425;-63
2023/06/14 08:16:33;;;;;;;5.43;2.25;;;;;;;;;;5065032;28;20415;-61
2023/06/14 08:19:00;;;;;;;4.20;2.20;;;;;;;;;;5064430;28;20424;-63
2023/06/14 08:21:28;;;;;;;6.07;2.57;;;;;;;;;;5067564;28;20419;-62
2023/06/14 08:23:56;;;;;;;4.45;2.60;;;;;;;;;;5063421;28;20413;-63
2023/06/14 08:26:23;;;;;;;5.00;2.72;;;;;;;;;;5066260;28;20426;-61
2023/06/14 08:28:50;;;;;;;4.85;2.72;;;;;;;;;;5063830;28;20883;-59
2023/06/14 08:31:17;;;;;;;2.85;2.05;;;;;;;;;;5060576;28;20405;-63
2023/06/14 08:33:45;;;;;;;3.47;2.60;;;;;;;;;;5066014;28;20420;-64
2023/06/14 08:36:12;;;;;;;6.95;4.78;;;;;;;;;;5056671;28;20450;-64
2023/06/14 08:38:39;;;;;;;8.40;5.43;;;;;;;;;;5069246;28;20461;-64
2023/06/14 08:41:07;;;;;;;5.07;2.80;;;;;;;;;;5062962;28;20840;-64
2023/06/14 08:43:34;;;;;;;6.70;2.47;;;;;;;;;;5068731;28;20837;-65
2023/06/14 08:46:02;;;;;;;6.60;3.20;;;;;;;;;;5061371;28;20443;-64
2023/06/14 08:48:32;;;;;;;4.28;2.78;;;;;;;;;;5062870;28;20481;-64
2023/06/14 08:51:02;;;;;;;6.35;3.97;;;;;;;;;;5061092;28;20428;-67
2023/06/14 08:53:31;;;;;;;5.80;3.53;;;;;;;;;;5069664;28;20514;-62
2023/06/14 08:56:00;;;;;;;5.60;2.65;;;;;;;;;;5062836;28;20419;-64
2023/06/14 08:58:29;;;;;;;5.37;2.30;;;;;;;;;;5067557;28;20442;-63
2023/06/14 09:00:56;;;;;;;4.10;2.10;;;;;;;;;;5060300;28;20413;-60
2023/06/14 09:03:29;;;;;;;3.58;2.00;;;;;;;;;;5062962;28;20837;-61
2023/06/14 09:05:56;;;;;;;24.98;17.65;;;;;;;;;;5068197;28;20503;-64
2023/06/14 09:08:24;;;;;;;5.75;3.45;;;;;;;;;;5068387;28;20465;-64
2023/06/14 09:10:51;;;;;;;3.30;2.42;;;;;;;;;;5064535;28;20411;-64
2023/06/14 09:13:19;;;;;;;5.72;3.88;;;;;;;;;;5066722;28;20432;-65
2023/06/14 09:15:46;;;;;;;4.22;2.83;;;;;;;;;;5063774;28;20421;-65
2023/06/14 09:18:13;;;;;;;60.80;35.75;;;;;;;;;;5061117;28;20520;-65
2023/06/14 09:20:40;;;;;;;3.88;1.90;;;;;;;;;;5061471;28;20413;-66
2023/06/14 09:23:08;;;;;;;3.28;1.70;;;;;;;;;;5062632;28;20789;-67
2023/06/14 09:25:43;;;;;;;4.32;1.90;;;;;;;;;;5067857;28;20419;-64
2023/06/14 09:28:10;;;;;;;3.13;1.65;;;;;;;;;;5064537;28;20749;-63
2023/06/14 09:30:37;;;;;;;2.80;1.80;;;;;;;;;;5065061;28;20415;-64
2023/06/14 09:33:04;;;;;;;4.47;1.65;;;;;;;;;;5060561;28;20885;-63
2023/06/14 09:35:32;;;;;;;2.97;1.60;;;;;;;;;;5064335;28;20427;-64
2023/06/14 09:37:59;;;;;;;2.22;1.60;;;;;;;;;;5064154;28;20777;-63
2023/06/14 09:40:26;;;;;;;2.53;1.50;;;;;;;;;;5060737;28;20421;-64
2023/06/14 09:42:55;;;;;;;2.03;1.30;;;;;;;;;;5065636;28;20939;-64
2023/06/14 09:45:22;;;;;;;2.35;1.58;;;;;;;;;;5067107;28;21170;-67
2023/06/14 09:47:50;;;;;;;2.95;1.50;;;;;;;;;;5064003;28;20474;-66
2023/06/14 09:50:17;;;;;;;2.63;1.52;;;;;;;;;;5062653;28;20441;-66
2023/06/14 09:52:45;;;;;;;3.67;1.50;;;;;;;;;;5061343;28;20498;-65
2023/06/14 09:55:13;;;;;;;6.45;1.70;;;;;;;;;;5063691;28;20441;-69
2023/06/14 09:57:42;;;;;;;2.35;1.42;;;;;;;;;;5065274;28;20494;-65
2023/06/14 10:00:12;;;;;;;1.90;1.30;;;;;;;;;;5063106;28;20469;-66
2023/06/14 10:02:42;;;;;;;3.47;1.55;;;;;;;;;;5056674;28;20583;-65
2023/06/14 10:05:10;;;;;;;2.30;1.40;;;;;;;;;;5067491;28;20773;-66
2023/06/14 10:07:41;;;;;;;2.45;1.42;;;;;;;;;;5063461;28;20412;-66
2023/06/14 10:10:09;;;;;;;4.03;1.50;;;;;;;;;;5062171;28;20416;-65
2023/06/14 10:12:37;;;;;;;2.90;1.77;;;;;;;;;;5066352;28;20420;-66
2023/06/14 10:15:04;;;;;;;2.65;1.70;;;;;;;;;;5061622;28;20429;-66
2023/06/14 10:17:36;;;;;;;4.82;1.70;;;;;;;;;;5062468;28;20811;-65
2023/06/14 10:20:18;;;;;;;4.75;1.80;;;;;;;;;;5065037;28;20422;-66
2023/06/14 10:22:49;;;;;;;3.60;1.77;;;;;;;;;;5051654;28;20447;-66
2023/06/14 10:25:27;;;;;;;7.50;1.80;;;;;;;;;;5062547;28;20439;-66
2023/06/14 10:27:54;;;;;;;3.90;1.70;;;;;;;;;;5059537;28;20429;-65
2023/06/14 10:30:27;;;;;;;2.47;1.52;;;;;;;;;;5061232;28;20884;-63
2023/06/14 10:33:09;;;;;;;3.80;1.80;;;;;;;;;;5062530;28;20408;-62
2023/06/14 10:35:36;;;;;;;7.88;2.00;;;;;;;;;;5064285;28;20801;-65
2023/06/14 10:38:09;;;;;;;2.55;1.85;;;;;;;;;;5060307;28;20417;-63
2023/06/14 10:40:37;;;;;;;4.53;1.77;;;;;;;;;;5059519;28;20479;-65
2023/06/14 10:43:19;;;;;;;4.03;1.55;;;;;;;;;;5066196;28;20494;-63
2023/06/14 10:46:01;;;;;;;4.25;2.08;;;;;;;;;;5067070;28;20407;-60
2023/06/14 10:48:32;;;;;;;5.65;1.55;;;;;;;;;;5059876;28;20943;-63
2023/06/14 10:51:02;;;;;;;7.32;1.90;;;;;;;;;;5059731;28;20820;-64
2023/06/14 10:53:29;;;;;;;3.58;1.50;;;;;;;;;;5061264;28;20515;-62
2023/06/14 10:55:57;;;;;;;6.57;1.98;;;;;;;;;;5064975;28;20800;-63
2023/06/14 10:58:25;;;;;;;5.90;1.60;;;;;;;;;;5060076;28;20417;-65
2023/06/14 11:00:52;;;;;;;5.32;1.90;;;;;;;;;;5059349;28;20423;-63
2023/06/14 11:03:45;;;;;;;4.67;1.77;;;;;;;;;;5064390;28;20457;-63
2023/06/14 11:06:16;;;;;;;3.55;1.70;;;;;;;;;;5065422;28;20447;-62
2023/06/14 11:09:13;;;;;;;3.90;1.50;;;;;;;;;;5059569;28;20497;-63
2023/06/14 11:11:43;;;;;;;3.40;1.60;;;;;;;;;;5054706;28;20471;-63
2023/06/14 11:14:11;;;;;;;3.78;1.60;;;;;;;;;;5063165;28;20429;-64
2023/06/14 11:16:38;;;;;;;3.20;1.60;;;;;;;;;;5063298;28;20419;-64
2023/06/14 11:19:07;;;;;;;3.92;1.40;;;;;;;;;;5061391;28;20814;-64
2023/06/14 11:21:34;;;;;;;5.30;1.90;;;;;;;;;;5054535;28;20415;-64
2023/06/14 11:24:01;;;;;;;4.63;1.40;;;;;;;;;;5062156;28;20417;-65
2023/06/14 11:26:28;;;;;;;4.18;1.70;;;;;;;;;;5061915;28;20963;-63
2023/06/14 11:28:59;;;;;;;5.18;2.03;;;;;;;;;;5062624;28;20419;-63
2023/06/14 11:31:26;;;;;;;3.63;1.60;;;;;;;;;;5050383;28;20425;-63
2023/06/14 11:33:55;;;;;;;2.55;1.50;;;;;;;;;;5050072;28;20425;-63
2023/06/14 11:36:23;;;;;;;4.07;1.60;;;;;;;;;;5049530;28;20577;-64
2023/06/14 11:38:51;;;;;;;2.20;1.70;;;;;;;;;;5062229;28;20417;-64
2023/06/14 11:41:17;;;;;;;3.78;1.58;;;;;;;;;;5059459;28;20889;-64
2023/06/14 11:43:44;;;;;;;3.97;1.88;;;;;;;;;;5064758;28;20411;-64
2023/06/14 11:46:16;;;;;;;3.47;1.70;;;;;;;;;;5064769;28;20462;-63
2023/06/14 11:48:45;;;;;;;4.45;1.90;;;;;;;;;;5059983;28;20477;-63
2023/06/14 11:51:12;;;;;;;4.00;1.70;;;;;;;;;;5068316;28;20419;-63
2023/06/14 11:53:40;;;;;;;2.70;1.70;;;;;;;;;;5059373;28;20407;-65
2023/06/14 11:56:07;;;;;;;3.92;1.83;;;;;;;;;;5060627;28;20411;-64
2023/06/14 11:58:34;;;;;;;3.72;1.95;;;;;;;;;;5059079;28;20488;-65
2023/06/14 12:01:01;;;;;;;3.20;1.70;;;;;;;;;;5061307;28;20473;-65
2023/06/14 12:03:29;;;;;;;4.57;2.20;;;;;;;;;;5061149;28;20425;-63
2023/06/14 12:06:09;;;;;;;4.35;2.05;;;;;;;;;;5066295;28;20903;-65
2023/06/14 12:08:38;;;;;;;5.57;1.90;;;;;;;;;;5054983;28;20498;-65
2023/06/14 12:11:08;;;;;;;3.80;2.22;;;;;;;;;;5062871;28;20419;-65
2023/06/14 12:13:35;;;;;;;3.25;2.08;;;;;;;;;;5059638;28;20416;-65
2023/06/14 12:16:03;;;;;;;4.47;2.13;;;;;;;;;;5060374;28;20769;-66
2023/06/14 12:18:34;;;;;;;3.25;2.00;;;;;;;;;;5058438;28;20417;-65
2023/06/14 12:21:03;;;;;;;3.63;2.20;;;;;;;;;;5061323;28;20421;-64
2023/06/14 12:23:40;;;;;;;3.03;2.28;;;;;;;;;;5060981;28;20423;-65
2023/06/14 12:26:08;;;;;;;5.15;2.35;;;;;;;;;;5065594;28;20410;-64
2023/06/14 12:28:35;;;;;;;3.20;2.20;;;;;;;;;;5061305;28;20415;-63
2023/06/14 12:31:03;;;;;;;3.28;2.13;;;;;;;;;;5059628;28;20481;-64
2023/06/14 12:33:30;;;;;;;3.00;2.00;;;;;;;;;;5058464;28;20797;-63
2023/06/14 12:35:57;;;;;;;4.13;2.03;;;;;;;;;;5059257;28;20455;-64
2023/06/14 12:38:24;;;;;;;6.47;2.10;;;;;;;;;;5057586;28;20496;-65
2023/06/14 12:40:52;;;;;;;3.35;2.15;;;;;;;;;;5059992;28;20411;-64
2023/06/14 12:43:20;;;;;;;3.53;2.22;;;;;;;;;;5063902;28;20506;-63
2023/06/14 12:45:47;;;;;;;3.28;2.25;;;;;;;;;;5066041;28;20446;-63
2023/06/14 12:48:15;;;;;;;6.70;2.47;;;;;;;;;;5065555;28;20506;-61
2023/06/14 12:50:42;;;;;;;5.60;2.20;;;;;;;;;;5062796;28;20514;-62
2023/06/14 12:53:09;;;;;;;4.60;2.40;;;;;;;;;;5063163;28;20417;-61
2023/06/14 12:55:36;;;;;;;2.97;2.07;;;;;;;;;;5064639;28;20563;-62
2023/06/14 12:58:03;;;;;;;3.72;2.15;;;;;;;;;;5062206;28;20462;-63
2023/06/14 13:00:31;;;;;;;3.78;2.10;;;;;;;;;;5067993;28;20432;-65
2023/06/14 13:02:58;;;;;;;4.60;2.30;;;;;;;;;;5061872;28;20417;-65
2023/06/14 13:05:25;;;;;;;5.88;2.38;;;;;;;;;;5067759;28;20413;-65
2023/06/14 13:07:52;;;;;;;4.50;2.45;;;;;;;;;;5068665;28;20545;-70
2023/06/14 13:10:19;;;;;;;4.80;2.10;;;;;;;;;;5063194;28;20549;-69
2023/06/14 13:12:46;;;;;;;2.80;2.00;;;;;;;;;;5069242;28;20910;-68
2023/06/14 13:15:13;;;;;;;5.93;2.38;;;;;;;;;;5071157;28;20453;-69
2023/06/14 13:17:43;;;;;;;2.92;2.00;;;;;;;;;;5062705;28;21074;-69
2023/06/14 13:20:11;;;;;;;6.85;2.20;;;;;;;;;;5062214;28;20421;-73
2023/06/14 13:22:39;;;;;;;3.50;2.20;;;;;;;;;;5062940;28;20447;-70
2023/06/14 13:25:07;;;;;;;3.33;2.17;;;;;;;;;;5065621;28;20413;-70
2023/06/14 13:27:34;;;;;;;3.03;2.20;;;;;;;;;;5068477;28;20969;-70
2023/06/14 13:30:01;;;;;;;3.28;2.20;;;;;;;;;;5066400;28;20421;-70
2023/06/14 13:32:28;;;;;;;4.20;2.00;;;;;;;;;;5063114;28;20903;-71
2023/06/14 13:34:57;;;;;;;4.10;2.30;;;;;;;;;;5059555;28;20432;-70
2023/06/14 13:37:24;;;;;;;3.67;2.33;;;;;;;;;;5061211;28;20448;-74
2023/06/14 13:39:51;;;;;;;5.47;2.35;;;;;;;;;;5061533;28;20898;-70
2023/06/14 13:42:19;;;;;;;5.13;2.42;;;;;;;;;;5066720;28;20485;-70
2023/06/14 13:44:46;;;;;;;3.35;2.25;;;;;;;;;;5065567;28;20522;-70
2023/06/14 13:47:13;;;;;;;3.72;2.20;;;;;;;;;;5063125;28;20480;-70
2023/06/14 13:49:40;;;;;;;4.43;2.22;;;;;;;;;;5060847;28;20890;-70
2023/06/14 13:52:09;;;;;;;4.25;2.28;;;;;;;;;;5062454;28;20421;-70
2023/06/14 13:54:36;;;;;;;3.92;2.58;;;;;;;;;;5062970;28;20477;-70
2023/06/14 13:57:03;;;;;;;3.03;2.10;;;;;;;;;;5062062;28;20531;-69
2023/06/14 13:59:31;;;;;;;3.90;2.58;;;;;;;;;;5061692;28;20467;-67
2023/06/14 14:01:58;;;;;;;4.18;2.25;;;;;;;;;;5064064;28;20464;-63
2023/06/14 14:04:24;;;;;;;4.50;2.40;;;;;;;;;;5061762;28;20489;-64
2023/06/14 14:06:52;;;;;;;4.55;2.63;;;;;;;;;;5062666;28;20408;-64
2023/06/14 14:09:21;;;;;;;5.18;2.60;;;;;;;;;;5059756;28;20412;-64
2023/06/14 14:11:48;;;;;;;3.85;2.53;;;;;;;;;;5066927;28;20423;-63
2023/06/14 14:14:15;;;;;;;4.50;2.42;;;;;;;;;;5064955;28;20470;-69
2023/06/14 14:16:42;;;;;;;6.38;2.72;;;;;;;;;;5068779;28;20445;-66
2023/06/14 14:19:09;;;;;;;4.00;2.60;;;;;;;;;;5064868;28;20420;-67
2023/06/14 14:21:37;;;;;;;3.90;2.60;;;;;;;;;;5060663;28;20759;-64
2023/06/14 14:24:04;;;;;;;3.08;2.20;;;;;;;;;;5066219;28;20419;-63
2023/06/14 14:26:33;;;;;;;6.40;2.50;;;;;;;;;;5058503;28;20428;-64
2023/06/14 14:29:00;;;;;;;3.83;2.37;;;;;;;;;;5062274;28;20934;-64
2023/06/14 14:31:27;;;;;;;5.68;2.47;;;;;;;;;;5060795;28;20413;-62
2023/06/14 14:33:54;;;;;;;4.72;2.53;;;;;;;;;;5066188;28;20416;-63
2023/06/14 14:36:21;;;;;;;3.45;2.70;;;;;;;;;;5062142;28;20427;-63
2023/06/14 14:38:48;;;;;;;4.33;2.60;;;;;;;;;;5070391;28;20411;-61
2023/06/14 14:41:15;;;;;;;3.10;2.50;;;;;;;;;;5063554;28;20474;-60
2023/06/14 14:43:44;;;;;;;2.92;2.35;;;;;;;;;;5062587;28;20407;-62
2023/06/14 14:46:11;;;;;;;4.60;2.35;;;;;;;;;;5065957;28;20420;-64
2023/06/14 14:48:38;;;;;;;4.22;2.95;;;;;;;;;;5061331;28;20802;-63